createdAt,value
2023-05-21T00:00:53.892Z,18.55
2023-05-21T00:05:55.733Z,18.54
2023-05-21T00:10:57.450Z,18.55
2023-05-21T00:15:59.617Z,18.56
2023-05-21T00:21:01.780Z,18.55
2023-05-21T00:26:03.621Z,18.52
2023-05-21T00:31:06.212Z,18.41
2023-05-21T00:36:08.772Z,18.35
2023-05-21T00:41:10.876Z,18.27
2023-05-21T00:46:19.506Z,18.17
2023-05-21T00:51:21.656Z,18.10
2023-05-21T00:56:24.742Z,17.98
2023-05-21T01:01:26.553Z,17.87
2023-05-21T01:06:28.529Z,17.82
2023-05-21T01:11:40.024Z,17.76
2023-05-21T01:16:43.890Z,17.69
2023-05-21T01:21:57.588Z,17.65
2023-05-21T01:27:02.475Z,17.69
2023-05-21T01:32:22.448Z,17.65
2023-05-21T01:37:38.080Z,17.65
2023-05-21T01:42:44.382Z,17.69
2023-05-21T01:47:49.243Z,17.67
2023-05-21T01:52:53.671Z,17.65
2023-05-21T01:57:55.892Z,17.65
2023-05-21T02:02:58.721Z,17.60
2023-05-21T02:08:00.929Z,17.57
2023-05-21T02:13:03.758Z,17.52
2023-05-21T02:18:06.095Z,17.48
2023-05-21T02:23:07.945Z,17.38
2023-05-21T02:28:09.723Z,17.21
2023-05-21T02:33:14.434Z,16.94
2023-05-21T02:38:19.406Z,16.82
2023-05-21T02:43:21.461Z,16.78
2023-05-21T02:48:23.152Z,16.75
2023-05-21T02:53:25.640Z,16.76
2023-05-21T02:58:27.540Z,16.72
2023-05-21T03:03:29.598Z,16.64
2023-05-21T03:08:32.193Z,16.53
2023-05-21T03:13:34.008Z,16.55
2023-05-21T03:18:35.854Z,16.61
2023-05-21T03:23:37.665Z,16.62
2023-05-21T03:28:39.662Z,16.55
2023-05-21T03:33:42.040Z,16.54
2023-05-21T03:38:53.261Z,16.48
2023-05-21T03:43:55.980Z,16.32
2023-05-21T03:49:02.245Z,16.33
2023-05-21T03:54:06.582Z,16.24
2023-05-21T03:59:10.460Z,16.29
2023-05-21T04:04:12.356Z,16.31
2023-05-21T04:09:14.465Z,16.30
2023-05-21T04:14:16.623Z,16.20
2023-05-21T04:19:19.309Z,16.24
2023-05-21T04:24:22.502Z,16.28
2023-05-21T04:29:44.673Z,16.35
2023-05-21T04:34:46.681Z,16.45
2023-05-21T04:39:48.452Z,16.49
2023-05-21T04:44:50.975Z,16.54
2023-05-21T04:49:53.461Z,16.55
2023-05-21T04:54:56.164Z,16.63
2023-05-21T04:59:58.141Z,16.74
2023-05-21T05:04:59.994Z,16.80
2023-05-21T05:10:02.277Z,16.92
2023-05-21T05:15:06.603Z,17.07
2023-05-21T05:20:09.936Z,17.18
2023-05-21T05:25:12.543Z,17.32
2023-05-21T05:30:14.348Z,17.47
2023-05-21T05:35:16.388Z,17.56
2023-05-21T05:40:18.863Z,17.65
2023-05-21T05:45:21.294Z,17.74
2023-05-21T05:50:23.204Z,17.86
2023-05-21T05:55:26.676Z,17.97
2023-05-21T06:00:29.746Z,18.04
2023-05-21T06:05:34.752Z,18.13
2023-05-21T06:10:36.891Z,18.21
2023-05-21T06:15:43.030Z,18.33
2023-05-21T06:20:45.110Z,18.47
2023-05-21T06:25:47.191Z,18.62
2023-05-21T06:30:49.610Z,18.74
2023-05-21T06:35:52.157Z,18.92
2023-05-21T06:40:54.385Z,19.05
2023-05-21T06:46:14.092Z,19.22
2023-05-21T06:51:15.910Z,19.34
2023-05-21T06:56:17.611Z,19.47
2023-05-21T07:01:19.714Z,19.56
2023-05-21T07:06:22.338Z,19.67
2023-05-21T07:11:28.695Z,19.79
2023-05-21T07:16:31.458Z,19.93
2023-05-21T07:21:34.541Z,20.06
2023-05-21T07:26:37.387Z,20.18
2023-05-21T07:31:39.517Z,20.29
2023-05-21T07:36:42.436Z,20.43
2023-05-21T07:41:44.542Z,20.59
2023-05-21T07:46:46.626Z,20.68
2023-05-21T07:51:49.351Z,20.67
2023-05-21T07:56:51.290Z,20.69
2023-05-21T08:02:16.351Z,20.73
2023-05-21T08:07:19.880Z,20.83
2023-05-21T08:12:21.855Z,21.00
2023-05-21T08:17:23.978Z,21.20
2023-05-21T08:22:26.036Z,21.44
2023-05-21T08:27:28.545Z,21.63
2023-05-21T08:32:30.973Z,21.81
2023-05-21T08:37:33.667Z,22.04
2023-05-21T08:42:48.067Z,22.30
2023-05-21T08:47:59.603Z,22.52
2023-05-21T08:53:12.702Z,22.81
2023-05-21T08:58:25.738Z,23.09
2023-05-21T09:03:29.364Z,23.37
2023-05-21T09:08:35.726Z,23.47
2023-05-21T09:13:43.687Z,23.41
2023-05-21T09:18:51.985Z,23.47
2023-05-21T09:23:59.500Z,23.53
2023-05-21T09:29:01.621Z,23.65
2023-05-21T09:34:03.661Z,23.84
2023-05-21T09:39:08.075Z,24.11
2023-05-21T09:44:10.824Z,24.29
2023-05-21T09:49:26.679Z,24.50
2023-05-21T09:54:33.975Z,24.64
2023-05-21T09:59:37.240Z,24.69
2023-05-21T10:04:39.311Z,24.77
2023-05-21T10:09:42.376Z,24.76
2023-05-21T10:14:49.716Z,24.75
2023-05-21T10:19:52.890Z,24.81
2023-05-21T10:24:54.823Z,24.72
2023-05-21T10:30:00.458Z,24.71
2023-05-21T10:35:02.878Z,24.78
2023-05-21T10:40:04.872Z,24.84
2023-05-21T10:45:25.939Z,24.85
2023-05-21T10:50:49.857Z,25.01
2023-05-21T10:56:13.244Z,25.15
2023-05-21T11:01:16.348Z,25.33
2023-05-21T11:06:26.283Z,25.39
2023-05-21T11:11:44.225Z,25.57
2023-05-21T11:16:46.824Z,25.74
2023-05-21T11:21:51.898Z,25.90
2023-05-21T11:26:58.529Z,26.07
2023-05-21T11:32:02.742Z,26.07
2023-05-21T11:37:36.874Z,26.01
2023-05-21T11:42:39.384Z,26.03
2023-05-21T11:47:42.591Z,25.96
2023-05-21T11:52:44.676Z,25.83
2023-05-21T11:57:48.039Z,25.85
2023-05-21T12:02:52.048Z,25.90
2023-05-21T12:07:54.956Z,26.05
2023-05-21T12:12:57.543Z,26.40
2023-05-21T12:18:01.278Z,26.62
2023-05-21T12:23:03.238Z,26.86
2023-05-21T12:28:05.393Z,26.94
2023-05-21T12:33:07.409Z,26.87
2023-05-21T12:38:09.904Z,26.86
2023-05-21T12:43:11.804Z,26.86
2023-05-21T12:48:13.798Z,26.99
2023-05-21T12:53:15.933Z,27.21
2023-05-21T12:58:22.041Z,27.18
2023-05-21T13:03:26.146Z,27.17
2023-05-21T13:08:28.333Z,27.15
2023-05-21T13:13:30.437Z,26.99
2023-05-21T13:18:32.659Z,26.88
2023-05-21T13:23:34.597Z,26.85
2023-05-21T13:28:36.660Z,26.97
2023-05-21T13:33:38.556Z,27.09
2023-05-21T13:38:40.363Z,27.08
2023-05-21T13:43:43.205Z,27.05
2023-05-21T13:48:44.898Z,27.08
2023-05-21T13:53:46.841Z,27.04
2023-05-21T13:58:48.676Z,27.18
2023-05-21T14:03:50.800Z,27.56
2023-05-21T14:08:52.548Z,27.74
2023-05-21T14:13:54.633Z,27.73
2023-05-21T14:18:58.049Z,27.79
2023-05-21T14:23:59.849Z,27.98
2023-05-21T14:29:01.623Z,27.99
2023-05-21T14:34:03.649Z,27.63
2023-05-21T14:39:05.776Z,27.32
2023-05-21T14:44:08.232Z,27.26
2023-05-21T14:49:11.880Z,27.25
2023-05-21T14:54:14.110Z,27.18
2023-05-21T14:59:15.794Z,27.33
2023-05-21T15:04:33.908Z,27.51
2023-05-21T15:09:38.962Z,27.60
2023-05-21T15:14:41.066Z,27.55
2023-05-21T15:19:42.867Z,27.45
2023-05-21T15:24:45.155Z,27.44
2023-05-21T15:29:47.538Z,27.48
2023-05-21T15:34:49.939Z,27.39
2023-05-21T15:39:53.343Z,27.17
2023-05-21T15:44:55.935Z,26.89
2023-05-21T15:49:58.905Z,26.54
2023-05-21T15:55:00.838Z,26.38
2023-05-21T16:00:02.579Z,26.30
2023-05-21T16:05:10.524Z,26.28
2023-05-21T16:10:12.328Z,26.23
2023-05-21T16:15:14.239Z,26.19
2023-05-21T16:20:18.680Z,26.20
2023-05-21T16:25:20.877Z,26.25
2023-05-21T16:30:22.675Z,26.39
2023-05-21T16:35:24.441Z,26.51
2023-05-21T16:40:26.309Z,26.69
2023-05-21T16:45:38.750Z,26.79
2023-05-21T16:50:40.966Z,26.64
2023-05-21T16:55:43.270Z,26.51
2023-05-21T17:00:45.099Z,26.31
2023-05-21T17:05:47.007Z,26.06
2023-05-21T17:10:48.889Z,25.86
2023-05-21T17:15:51.260Z,25.78
2023-05-21T17:20:53.289Z,25.72
2023-05-21T17:25:55.168Z,25.62
2023-05-21T17:30:56.941Z,25.47
2023-05-21T17:35:58.665Z,25.29
2023-05-21T17:41:00.481Z,25.21
2023-05-21T17:46:02.227Z,25.05
2023-05-21T17:51:04.297Z,24.89
2023-05-21T17:56:06.855Z,24.73
2023-05-21T18:01:08.534Z,24.59
2023-05-21T18:06:10.452Z,24.42
2023-05-21T18:11:12.209Z,24.29
2023-05-21T18:16:14.909Z,24.06
2023-05-21T18:21:17.034Z,23.89
2023-05-21T18:26:20.474Z,23.76
2023-05-21T18:31:22.843Z,23.53
2023-05-21T18:36:26.565Z,23.38
2023-05-21T18:41:28.436Z,23.24
2023-05-21T18:46:31.626Z,23.12
2023-05-21T18:51:33.539Z,23.03
2023-05-21T18:56:35.434Z,22.96
2023-05-21T19:01:37.299Z,22.87
2023-05-21T19:06:39.018Z,22.80
2023-05-21T19:11:41.109Z,22.69
2023-05-21T19:16:43.058Z,22.67
2023-05-21T19:21:45.015Z,22.56
2023-05-21T19:26:46.869Z,22.54
2023-05-21T19:31:48.786Z,22.47
2023-05-21T19:36:53.772Z,22.33
2023-05-21T19:41:55.938Z,22.16
2023-05-21T19:46:59.420Z,22.08
2023-05-21T19:52:02.494Z,22.00
2023-05-21T19:57:04.514Z,21.81
2023-05-21T20:02:07.129Z,21.58
2023-05-21T20:07:09.208Z,21.54
2023-05-21T20:12:11.030Z,21.54
2023-05-21T20:17:14.564Z,21.53
2023-05-21T20:22:16.991Z,21.48
2023-05-21T20:27:19.877Z,21.44
2023-05-21T20:32:21.674Z,21.25
2023-05-21T20:37:26.321Z,21.29
2023-05-21T20:42:33.942Z,21.27
2023-05-21T20:47:36.349Z,21.10
2023-05-21T20:52:38.144Z,21.05
2023-05-21T20:57:40.083Z,21.03
2023-05-21T21:02:42.100Z,20.98
2023-05-21T21:07:45.606Z,20.90
2023-05-21T21:12:47.917Z,20.92
2023-05-21T21:17:49.926Z,20.93
2023-05-21T21:22:52.215Z,20.91
2023-05-21T21:27:54.032Z,20.88
2023-05-21T21:32:55.988Z,20.85
2023-05-21T21:37:58.269Z,20.79
2023-05-21T21:43:00.062Z,20.77
2023-05-21T21:48:02.132Z,20.72
2023-05-21T21:53:05.890Z,20.67
2023-05-21T21:58:07.899Z,20.50
2023-05-21T22:03:12.234Z,20.33
2023-05-21T22:08:15.629Z,20.14
2023-05-21T22:13:17.343Z,19.97
2023-05-21T22:18:31.882Z,19.81
2023-05-21T22:23:41.268Z,19.71
2023-05-21T22:28:43.075Z,19.72
2023-05-21T22:33:44.970Z,19.73
2023-05-21T22:38:46.786Z,19.72
2023-05-21T22:43:48.569Z,19.69
2023-05-21T22:48:50.554Z,19.58
2023-05-21T22:53:52.788Z,19.54
2023-05-21T22:58:55.240Z,19.43
2023-05-21T23:03:57.068Z,19.27
2023-05-21T23:08:59.147Z,18.93
2023-05-21T23:14:00.903Z,18.36
2023-05-21T23:19:02.816Z,18.03
2023-05-21T23:24:05.665Z,17.85
2023-05-21T23:29:07.555Z,17.52
2023-05-21T23:34:10.116Z,17.30
2023-05-21T23:39:12.141Z,17.23
2023-05-21T23:44:15.434Z,17.09
2023-05-21T23:49:17.283Z,17.28
2023-05-21T23:54:19.177Z,17.51
2023-05-21T23:59:20.952Z,17.50
